sensor_id;sensor_type;location;lat;lon;timestamp;pressure;altitude;pressure_sealevel;temperature;humidity
9141;BME280;46330;50.822;7.126;2022-11-11T00:01:46;102319.53;;;7.18;100.00
9141;BME280;46330;50.822;7.126;2022-11-11T00:04:32;102315.03;;;7.11;100.00
9141;BME280;46330;50.822;7.126;2022-11-11T00:07:18;102317.63;;;7.11;100.00
9141;BME280;46330;50.822;7.126;2022-11-11T00:10:06;102309.69;;;7.05;100.00
9141;BME280;46330;50.822;7.126;2022-11-11T00:12:53;102312.34;;;7.08;100.00
9141;BME280;46330;50.822;7.126;2022-11-11T00:15:41;102311.38;;;7.03;100.00
9141;BME280;46330;50.822;7.126;2022-11-11T00:18:27;102309.75;;;7.07;100.00
9141;BME280;46330;50.822;7.126;2022-11-11T00:21:32;102294.97;;;7.06;100.00
9141;BME280;46330;50.822;7.126;2022-11-11T00:24:47;102289.56;;;6.96;100.00
9141;BME280;46330;50.822;7.126;2022-11-11T00:27:52;102300.88;;;6.98;100.00
9141;BME280;46330;50.822;7.126;2022-11-11T00:30:40;102302.66;;;7.01;100.00
9141;BME280;46330;50.822;7.126;2022-11-11T00:33:27;102309.56;;;7.00;100.00
9141;BME280;46330;50.822;7.126;2022-11-11T00:36:13;102307.78;;;6.98;100.00
9141;BME280;46330;50.822;7.126;2022-11-11T00:39:00;102305.25;;;7.01;100.00
9141;BME280;46330;50.822;7.126;2022-11-11T00:41:46;102308.72;;;7.00;100.00
9141;BME280;46330;50.822;7.126;2022-11-11T00:44:33;102304.28;;;6.96;100.00
9141;BME280;46330;50.822;7.126;2022-11-11T00:47:21;102293.75;;;6.91;100.00
9141;BME280;46330;50.822;7.126;2022-11-11T00:50:27;102311.97;;;6.90;100.00
9141;BME280;46330;50.822;7.126;2022-11-11T00:53:31;102324.13;;;6.91;100.00
9141;BME280;46330;50.822;7.126;2022-11-11T00:56:20;102338.03;;;6.93;100.00
9141;BME280;46330;50.822;7.126;2022-11-11T00:59:08;102336.38;;;6.96;100.00
9141;BME280;46330;50.822;7.126;2022-11-11T01:01:54;102345.91;;;6.96;100.00
9141;BME280;46330;50.822;7.126;2022-11-11T01:04:42;102343.25;;;6.94;100.00
9141;BME280;46330;50.822;7.126;2022-11-11T01:07:28;102343.09;;;6.87;100.00
9141;BME280;46330;50.822;7.126;2022-11-11T01:10:16;102356.84;;;6.81;100.00
9141;BME280;46330;50.822;7.126;2022-11-11T01:13:23;102354.16;;;6.78;100.00
9141;BME280;46330;50.822;7.126;2022-11-11T01:16:12;102347.19;;;6.77;100.00
9141;BME280;46330;50.822;7.126;2022-11-11T01:18:59;102345.50;;;6.78;100.00
9141;BME280;46330;50.822;7.126;2022-11-11T01:21:46;102337.47;;;6.69;100.00
9141;BME280;46330;50.822;7.126;2022-11-11T01:24:33;102339.03;;;6.62;100.00
9141;BME280;46330;50.822;7.126;2022-11-11T01:27:20;102342.38;;;6.57;100.00
9141;BME280;46330;50.822;7.126;2022-11-11T01:30:07;102343.44;;;6.65;100.00
9141;BME280;46330;50.822;7.126;2022-11-11T01:32:54;102341.56;;;6.59;100.00
9141;BME280;46330;50.822;7.126;2022-11-11T01:35:40;102345.06;;;6.61;100.00
9141;BME280;46330;50.822;7.126;2022-11-11T01:38:28;102346.78;;;6.59;100.00
9141;BME280;46330;50.822;7.126;2022-11-11T01:41:18;102345.06;;;6.60;100.00
9141;BME280;46330;50.822;7.126;2022-11-11T01:44:43;102336.28;;;6.56;100.00
9141;BME280;46330;50.822;7.126;2022-11-11T01:47:30;102347.44;;;6.51;100.00
9141;BME280;46330;50.822;7.126;2022-11-11T01:50:59;102343.06;;;6.49;100.00
9141;BME280;46330;50.822;7.126;2022-11-11T01:53:48;102350.88;;;6.51;100.00
9141;BME280;46330;50.822;7.126;2022-11-11T01:56:37;102357.84;;;6.52;100.00
9141;BME280;46330;50.822;7.126;2022-11-11T01:59:25;102356.06;;;6.49;100.00
9141;BME280;46330;50.822;7.126;2022-11-11T02:02:17;102353.41;;;6.48;100.00
9141;BME280;46330;50.822;7.126;2022-11-11T02:05:09;102349.91;;;6.46;100.00
9141;BME280;46330;50.822;7.126;2022-11-11T02:08:16;102350.72;;;6.43;100.00
9141;BME280;46330;50.822;7.126;2022-11-11T02:11:19;102349.91;;;6.46;100.00
9141;BME280;46330;50.822;7.126;2022-11-11T02:14:21;102349.09;;;6.48;100.00
9141;BME280;46330;50.822;7.126;2022-11-11T02:17:26;102352.69;;;6.54;100.00
9141;BME280;46330;50.822;7.126;2022-11-11T02:20:15;102352.69;;;6.54;100.00
9141;BME280;46330;50.822;7.126;2022-11-11T02:23:07;102343.88;;;6.47;100.00
9141;BME280;46330;50.822;7.126;2022-11-11T02:25:59;102345.59;;;6.48;100.00
9141;BME280;46330;50.822;7.126;2022-11-11T02:28:48;102354.34;;;6.50;100.00
9141;BME280;46330;50.822;7.126;2022-11-11T02:31:35;102348.19;;;6.46;100.00
9141;BME280;46330;50.822;7.126;2022-11-11T02:34:27;102338.47;;;6.39;100.00
9141;BME280;46330;50.822;7.126;2022-11-11T02:37:17;102341.03;;;6.38;100.00
9141;BME280;46330;50.822;7.126;2022-11-11T02:40:06;102339.22;;;6.35;100.00
9141;BME280;46330;50.822;7.126;2022-11-11T02:42:55;102341.72;;;6.31;100.00
9141;BME280;46330;50.822;7.126;2022-11-11T02:45:41;102348.78;;;6.35;100.00
9141;BME280;46330;50.822;7.126;2022-11-11T02:48:27;102350.50;;;6.36;100.00
9141;BME280;46330;50.822;7.126;2022-11-11T02:51:14;102345.22;;;6.31;100.00
9141;BME280;46330;50.822;7.126;2022-11-11T02:54:01;102350.31;;;6.28;100.00
9141;BME280;46330;50.822;7.126;2022-11-11T02:56:47;102338.25;;;6.30;100.00
9141;BME280;46330;50.822;7.126;2022-11-11T02:59:55;102338.22;;;6.29;100.00
9141;BME280;46330;50.822;7.126;2022-11-11T03:02:42;102343.28;;;6.24;100.00
9141;BME280;46330;50.822;7.126;2022-11-11T03:05:29;102346.78;;;6.26;100.00
9141;BME280;46330;50.822;7.126;2022-11-11T03:08:15;102340.63;;;6.23;100.00
9141;BME280;46330;50.822;7.126;2022-11-11T03:11:02;102343.28;;;6.24;100.00
9141;BME280;46330;50.822;7.126;2022-11-11T03:13:49;102331.97;;;6.22;100.00
9141;BME280;46330;50.822;7.126;2022-11-11T03:16:37;102343.22;;;6.21;100.00
9141;BME280;46330;50.822;7.126;2022-11-11T03:19:41;102341.44;;;6.20;100.00
9141;BME280;46330;50.822;7.126;2022-11-11T03:22:27;102332.69;;;6.17;100.00
9141;BME280;46330;50.822;7.126;2022-11-11T03:25:37;102346.56;;;6.17;100.00
9141;BME280;46330;50.822;7.126;2022-11-11T03:28:24;102346.53;;;6.16;100.00
9141;BME280;46330;50.822;7.126;2022-11-11T03:31:11;102349.97;;;6.15;100.00
9141;BME280;46330;50.822;7.126;2022-11-11T03:33:59;102353.31;;;6.11;100.00
9141;BME280;46330;50.822;7.126;2022-11-11T03:37:02;102353.28;;;6.09;100.00
9141;BME280;46330;50.822;7.126;2022-11-11T03:40:07;102361.16;;;6.12;100.00
9141;BME280;46330;50.822;7.126;2022-11-11T03:42:54;102359.31;;;6.08;100.00
9141;BME280;46330;50.822;7.126;2022-11-11T03:45:48;102359.28;;;6.07;100.00
9141;BME280;46330;50.822;7.126;2022-11-11T03:48:35;102356.59;;;6.04;100.00
9141;BME280;46330;50.822;7.126;2022-11-11T03:51:23;102357.53;;;6.07;100.00
9141;BME280;46330;50.822;7.126;2022-11-11T03:54:09;102354.03;;;6.05;100.00
9141;BME280;46330;50.822;7.126;2022-11-11T03:56:55;102356.53;;;6.01;100.00
9141;BME280;46330;50.822;7.126;2022-11-11T04:00:03;102350.34;;;5.97;100.00
9141;BME280;46330;50.822;7.126;2022-11-11T04:03:02;102347.84;;;6.00;100.00
9141;BME280;46330;50.822;7.126;2022-11-11T04:06:08;102361.63;;;5.98;100.00
9141;BME280;46330;50.822;7.126;2022-11-11T04:09:28;102362.47;;;5.97;100.00
9141;BME280;46330;50.822;7.126;2022-11-11T04:12:33;102361.50;;;5.93;100.00
9141;BME280;46330;50.822;7.126;2022-11-11T04:15:41;102365.00;;;5.95;100.00
9141;BME280;46330;50.822;7.126;2022-11-11T04:18:45;102358.00;;;5.92;100.00
9141;BME280;46330;50.822;7.126;2022-11-11T04:21:49;102358.00;;;5.92;100.00
9141;BME280;46330;50.822;7.126;2022-11-11T04:24:37;102342.44;;;5.92;100.00
9141;BME280;46330;50.822;7.126;2022-11-11T04:27:41;102351.03;;;5.90;100.00
9141;BME280;46330;50.822;7.126;2022-11-11T04:30:27;102354.44;;;5.89;100.00
9141;BME280;46330;50.822;7.126;2022-11-11T04:33:12;102346.63;;;5.87;100.00
9141;BME280;46330;50.822;7.126;2022-11-11T04:35:59;102344.91;;;5.88;100.00
9141;BME280;46330;50.822;7.126;2022-11-11T04:38:45;102352.72;;;5.88;100.00
9141;BME280;46330;50.822;7.126;2022-11-11T04:41:51;102339.72;;;5.88;100.00
9141;BME280;46330;50.822;7.126;2022-11-11T04:44:52;102350.97;;;5.88;100.00
9141;BME280;46330;50.822;7.126;2022-11-11T04:47:58;102353.41;;;5.84;100.00
9141;BME280;46330;50.822;7.126;2022-11-11T04:50:45;102353.47;;;5.85;100.00
9141;BME280;46330;50.822;7.126;2022-11-11T04:53:31;102358.69;;;5.85;100.00
9141;BME280;46330;50.822;7.126;2022-11-11T04:56:18;102364.84;;;5.89;100.00
9141;BME280;46330;50.822;7.126;2022-11-11T04:59:23;102362.97;;;5.85;100.00
9141;BME280;46330;50.822;7.126;2022-11-11T05:02:10;102367.34;;;5.86;100.00
9141;BME280;46330;50.822;7.126;2022-11-11T05:05:14;102361.28;;;5.85;100.00
9141;BME280;46330;50.822;7.126;2022-11-11T05:08:00;102357.72;;;5.82;100.00
9141;BME280;46330;50.822;7.126;2022-11-11T05:11:05;102359.44;;;5.83;100.00
9141;BME280;46330;50.822;7.126;2022-11-11T05:13:53;102361.16;;;5.82;100.00
9141;BME280;46330;50.822;7.126;2022-11-11T05:16:58;102375.22;;;5.89;100.00
9141;BME280;46330;50.822;7.126;2022-11-11T05:20:03;102372.41;;;5.81;100.00
9141;BME280;46330;50.822;7.126;2022-11-11T05:23:07;102384.59;;;5.84;100.00
9141;BME280;46330;50.822;7.126;2022-11-11T05:25:53;102379.31;;;5.81;100.00
9141;BME280;46330;50.822;7.126;2022-11-11T05:28:38;102370.53;;;5.76;100.00
9141;BME280;46330;50.822;7.126;2022-11-11T05:31:25;102366.94;;;5.72;100.00
9141;BME280;46330;50.822;7.126;2022-11-11T05:34:13;102364.44;;;5.75;100.00
9141;BME280;46330;50.822;7.126;2022-11-11T05:36:59;102371.34;;;5.75;100.00
9141;BME280;46330;50.822;7.126;2022-11-11T05:39:46;102357.53;;;5.76;100.00
9141;BME280;46330;50.822;7.126;2022-11-11T05:42:33;102366.25;;;5.79;100.00
9141;BME280;46330;50.822;7.126;2022-11-11T05:45:19;102367.19;;;5.81;100.00
9141;BME280;46330;50.822;7.126;2022-11-11T05:48:06;102367.19;;;5.81;100.00
9141;BME280;46330;50.822;7.126;2022-11-11T05:50:53;102371.53;;;5.82;100.00
9141;BME280;46330;50.822;7.126;2022-11-11T05:53:42;102371.59;;;5.84;100.00
9141;BME280;46330;50.822;7.126;2022-11-11T05:56:29;102373.38;;;5.85;100.00
9141;BME280;46330;50.822;7.126;2022-11-11T05:59:16;102375.91;;;5.83;100.00
9141;BME280;46330;50.822;7.126;2022-11-11T06:02:02;102379.38;;;5.84;100.00
9141;BME280;46330;50.822;7.126;2022-11-11T06:04:49;102375.19;;;5.87;100.00
9141;BME280;46330;50.822;7.126;2022-11-11T06:07:38;102379.53;;;5.88;100.00
9141;BME280;46330;50.822;7.126;2022-11-11T06:10:25;102388.28;;;5.92;100.00
9141;BME280;46330;50.822;7.126;2022-11-11T06:13:17;102390.84;;;5.90;100.00
9141;BME280;46330;50.822;7.126;2022-11-11T06:16:04;102393.47;;;5.90;100.00
9141;BME280;46330;50.822;7.126;2022-11-11T06:18:51;102402.03;;;5.88;100.00
9141;BME280;46330;50.822;7.126;2022-11-11T06:21:38;102409.88;;;5.89;100.00
9141;BME280;46330;50.822;7.126;2022-11-11T06:24:39;102405.47;;;5.87;100.00
9141;BME280;46330;50.822;7.126;2022-11-11T06:27:26;102413.19;;;5.85;100.00
9141;BME280;46330;50.822;7.126;2022-11-11T06:30:13;102413.19;;;5.85;100.00
9141;BME280;46330;50.822;7.126;2022-11-11T06:33:19;102420.16;;;5.86;100.00
9141;BME280;46330;50.822;7.126;2022-11-11T06:36:07;102434.03;;;5.87;100.00
9141;BME280;46330;50.822;7.126;2022-11-11T06:38:54;102420.22;;;5.88;100.00
9141;BME280;46330;50.822;7.126;2022-11-11T06:41:42;102430.63;;;5.89;100.00
9141;BME280;46330;50.822;7.126;2022-11-11T06:44:28;102426.06;;;5.82;100.00
9141;BME280;46330;50.822;7.126;2022-11-11T06:47:15;102444.28;;;5.84;100.00
9141;BME280;46330;50.822;7.126;2022-11-11T06:50:01;102440.94;;;5.86;100.00
9141;BME280;46330;50.822;7.126;2022-11-11T06:52:47;102443.63;;;5.89;100.00
9141;BME280;46330;50.822;7.126;2022-11-11T06:55:34;102451.47;;;5.91;100.00
9141;BME280;46330;50.822;7.126;2022-11-11T06:58:22;102446.38;;;5.94;100.00
9141;BME280;46330;50.822;7.126;2022-11-11T07:01:09;102451.59;;;5.95;100.00
9141;BME280;46330;50.822;7.126;2022-11-11T07:03:55;102446.38;;;5.95;100.00
9141;BME280;46330;50.822;7.126;2022-11-11T07:06:41;102447.34;;;5.98;100.00
9141;BME280;46330;50.822;7.126;2022-11-11T07:09:28;102451.75;;;6.02;100.00
9141;BME280;46330;50.822;7.126;2022-11-11T07:12:14;102450.31;;;6.11;100.00
9141;BME280;46330;50.822;7.126;2022-11-11T07:15:03;102451.25;;;6.13;100.00
9141;BME280;46330;50.822;7.126;2022-11-11T07:17:49;102443.63;;;6.19;100.00
9141;BME280;46330;50.822;7.126;2022-11-11T07:20:36;102449.84;;;6.26;100.00
9141;BME280;46330;50.822;7.126;2022-11-11T07:23:22;102446.47;;;6.28;100.00
9141;BME280;46330;50.822;7.126;2022-11-11T07:26:09;102442.19;;;6.30;100.00
9141;BME280;46330;50.822;7.126;2022-11-11T07:28:55;102440.53;;;6.34;100.00
9141;BME280;46330;50.822;7.126;2022-11-11T07:31:43;102447.69;;;6.42;100.00
9141;BME280;46330;50.822;7.126;2022-11-11T07:34:29;102437.38;;;6.45;100.00
9141;BME280;46330;50.822;7.126;2022-11-11T07:37:16;102449.72;;;6.54;100.00
9141;BME280;46330;50.822;7.126;2022-11-11T07:40:05;102460.19;;;6.56;100.00
9141;BME280;46330;50.822;7.126;2022-11-11T07:42:51;102459.50;;;6.63;100.00
9141;BME280;46330;50.822;7.126;2022-11-11T07:45:37;102462.28;;;6.70;100.00
9141;BME280;46330;50.822;7.126;2022-11-11T07:48:25;102457.03;;;6.67;100.00
9141;BME280;46330;50.822;7.126;2022-11-11T07:51:12;102462.44;;;6.76;100.00
9141;BME280;46330;50.822;7.126;2022-11-11T07:53:58;102462.50;;;6.78;100.00
9141;BME280;46330;50.822;7.126;2022-11-11T07:56:45;102462.81;;;6.90;100.00
9141;BME280;46330;50.822;7.126;2022-11-11T07:59:31;102470.84;;;7.00;100.00
9141;BME280;46330;50.822;7.126;2022-11-11T08:02:17;102480.50;;;7.03;100.00
9141;BME280;46330;50.822;7.126;2022-11-11T08:05:06;102481.59;;;7.13;100.00
9141;BME280;46330;50.822;7.126;2022-11-11T08:07:53;102487.66;;;7.13;100.00
9141;BME280;46330;50.822;7.126;2022-11-11T08:10:39;102488.88;;;7.27;100.00
9141;BME280;46330;50.822;7.126;2022-11-11T08:13:26;102489.84;;;7.31;100.00
9141;BME280;46330;50.822;7.126;2022-11-11T08:16:26;102487.41;;;7.38;100.00
9141;BME280;46330;50.822;7.126;2022-11-11T08:19:12;102503.09;;;7.41;100.00
9141;BME280;46330;50.822;7.126;2022-11-11T08:22:00;102486.63;;;7.41;100.00
9141;BME280;46330;50.822;7.126;2022-11-11T08:24:47;102491.91;;;7.45;100.00
9141;BME280;46330;50.822;7.126;2022-11-11T08:27:48;102491.34;;;7.58;100.00
9141;BME280;46330;50.822;7.126;2022-11-11T08:30:34;102496.91;;;7.74;100.00
9141;BME280;46330;50.822;7.126;2022-11-11T08:33:21;102486.63;;;7.80;100.00
9141;BME280;46330;50.822;7.126;2022-11-11T08:36:22;102491.69;;;7.74;100.00
9141;BME280;46330;50.822;7.126;2022-11-11T08:39:11;102496.13;;;7.78;100.00
9141;BME280;46330;50.822;7.126;2022-11-11T08:41:58;102480.88;;;7.96;100.00
9141;BME280;46330;50.822;7.126;2022-11-11T08:44:44;102487.94;;;8.00;100.00
9141;BME280;46330;50.822;7.126;2022-11-11T08:47:30;102496.00;;;8.13;100.00
9141;BME280;46330;50.822;7.126;2022-11-11T08:50:17;102497.91;;;8.21;100.00
9141;BME280;46330;50.822;7.126;2022-11-11T08:53:05;102497.06;;;8.22;100.00
9141;BME280;46330;50.822;7.126;2022-11-11T08:55:53;102502.75;;;8.44;100.00
9141;BME280;46330;50.822;7.126;2022-11-11T08:58:40;102509.13;;;8.60;100.00
9141;BME280;46330;50.822;7.126;2022-11-11T09:01:26;102508.47;;;8.70;100.00
9141;BME280;46330;50.822;7.126;2022-11-11T09:04:12;102519.84;;;8.74;100.00
9141;BME280;46330;50.822;7.126;2022-11-11T09:07:19;102506.13;;;8.84;99.94
9141;BME280;46330;50.822;7.126;2022-11-11T09:10:07;102511.28;;;8.82;99.20
9141;BME280;46330;50.822;7.126;2022-11-11T09:12:56;102508.88;;;8.93;98.96
9141;BME280;46330;50.822;7.126;2022-11-11T09:15:43;102511.00;;;9.15;97.00
9141;BME280;46330;50.822;7.126;2022-11-11T09:18:29;102512.59;;;9.07;97.63
9141;BME280;46330;50.822;7.126;2022-11-11T09:21:16;102515.28;;;9.11;98.21
9141;BME280;46330;50.822;7.126;2022-11-11T09:24:04;102506.03;;;9.30;97.05
9141;BME280;46330;50.822;7.126;2022-11-11T09:26:51;102520.97;;;9.40;96.15
9141;BME280;46330;50.822;7.126;2022-11-11T09:29:39;102509.75;;;9.46;96.27
9141;BME280;46330;50.822;7.126;2022-11-11T09:32:26;102512.59;;;9.61;95.59
9141;BME280;46330;50.822;7.126;2022-11-11T09:35:12;102517.69;;;9.53;95.43
9141;BME280;46330;50.822;7.126;2022-11-11T09:37:59;102519.69;;;9.68;94.65
9141;BME280;46330;50.822;7.126;2022-11-11T09:40:58;102516.28;;;9.75;94.22
9141;BME280;46330;50.822;7.126;2022-11-11T09:43:51;102526.63;;;9.69;94.70
9141;BME280;46330;50.822;7.126;2022-11-11T09:46:45;102519.25;;;10.01;94.09
9141;BME280;46330;50.822;7.126;2022-11-11T09:49:44;102519.50;;;10.19;92.44
9141;BME280;46330;50.822;7.126;2022-11-11T09:52:38;102517.19;;;10.42;91.91
9141;BME280;46330;50.822;7.126;2022-11-11T09:55:28;102510.19;;;10.39;90.93
9141;BME280;46330;50.822;7.126;2022-11-11T09:58:19;102517.47;;;10.69;90.15
9141;BME280;46330;50.822;7.126;2022-11-11T10:01:11;102511.25;;;10.58;89.89
9141;BME280;46330;50.822;7.126;2022-11-11T10:04:06;102517.41;;;10.61;90.00
9141;BME280;46330;50.822;7.126;2022-11-11T10:07:02;102516.47;;;10.55;89.15
9141;BME280;46330;50.822;7.126;2022-11-11T10:09:54;102507.28;;;10.98;88.30
9141;BME280;46330;50.822;7.126;2022-11-11T10:12:46;102505.63;;;11.07;87.21
9141;BME280;46330;50.822;7.126;2022-11-11T10:15:41;102508.41;;;11.28;85.50
9141;BME280;46330;50.822;7.126;2022-11-11T10:18:47;102495.44;;;11.44;85.78
9141;BME280;46330;50.822;7.126;2022-11-11T10:21:43;102495.41;;;11.39;84.34
9141;BME280;46330;50.822;7.126;2022-11-11T10:25:02;102494.56;;;11.42;85.67
9141;BME280;46330;50.822;7.126;2022-11-11T10:27:53;102499.91;;;11.61;84.46
9141;BME280;46330;50.822;7.126;2022-11-11T10:30:41;102498.28;;;11.72;83.95
9141;BME280;46330;50.822;7.126;2022-11-11T10:33:30;102503.56;;;11.80;83.47
9141;BME280;46330;50.822;7.126;2022-11-11T10:36:20;102496.56;;;11.77;82.61
9141;BME280;46330;50.822;7.126;2022-11-11T10:39:11;102506.31;;;12.04;81.89
9141;BME280;46330;50.822;7.126;2022-11-11T10:42:00;102502.13;;;12.59;80.31
9141;BME280;46330;50.822;7.126;2022-11-11T10:44:46;102498.66;;;12.75;78.58
9141;BME280;46330;50.822;7.126;2022-11-11T10:47:43;102495.19;;;12.99;77.36
9141;BME280;46330;50.822;7.126;2022-11-11T10:50:35;102495.19;;;12.76;77.93
9141;BME280;46330;50.822;7.126;2022-11-11T10:53:30;102508.38;;;13.25;76.60
9141;BME280;46330;50.822;7.126;2022-11-11T10:56:26;102505.72;;;13.51;75.27
9141;BME280;46330;50.822;7.126;2022-11-11T10:59:17;102506.59;;;13.12;75.99
9141;BME280;46330;50.822;7.126;2022-11-11T11:02:09;102501.38;;;13.10;75.63
9141;BME280;46330;50.822;7.126;2022-11-11T11:05:02;102497.72;;;13.90;73.76
9141;BME280;46330;50.822;7.126;2022-11-11T11:07:54;102491.66;;;13.76;72.98
9141;BME280;46330;50.822;7.126;2022-11-11T11:10:44;102490.75;;;13.81;72.64
9141;BME280;46330;50.822;7.126;2022-11-11T11:13:39;102490.66;;;13.98;71.83
9141;BME280;46330;50.822;7.126;2022-11-11T11:16:31;102486.25;;;14.08;71.50
9141;BME280;46330;50.822;7.126;2022-11-11T11:19:20;102481.97;;;13.76;72.56
9141;BME280;46330;50.822;7.126;2022-11-11T11:22:07;102478.44;;;13.94;71.72
9141;BME280;46330;50.822;7.126;2022-11-11T11:25:08;102477.38;;;14.37;71.00
9141;BME280;46330;50.822;7.126;2022-11-11T11:28:06;102472.78;;;14.71;68.62
9141;BME280;46330;50.822;7.126;2022-11-11T11:31:01;102473.66;;;14.72;68.77
9141;BME280;46330;50.822;7.126;2022-11-11T11:33:50;102468.44;;;14.66;68.94
9141;BME280;46330;50.822;7.126;2022-11-11T11:36:37;102472.44;;;15.14;66.45
9141;BME280;46330;50.822;7.126;2022-11-11T11:39:31;102477.34;;;14.39;68.00
9141;BME280;46330;50.822;7.126;2022-11-11T11:42:29;102476.53;;;14.25;68.10
9141;BME280;46330;50.822;7.126;2022-11-11T11:45:20;102484.41;;;14.28;69.39
9141;BME280;46330;50.822;7.126;2022-11-11T11:48:16;102472.25;;;14.02;69.85
9141;BME280;46330;50.822;7.126;2022-11-11T11:51:26;102473.03;;;14.29;69.57
9141;BME280;46330;50.822;7.126;2022-11-11T11:54:25;102462.53;;;14.18;69.41
9141;BME280;46330;50.822;7.126;2022-11-11T11:57:24;102469.47;;;14.36;69.19
9141;BME280;46330;50.822;7.126;2022-11-11T12:00:17;102467.78;;;14.26;68.38
9141;BME280;46330;50.822;7.126;2022-11-11T12:03:16;102454.59;;;14.35;68.59
9141;BME280;46330;50.822;7.126;2022-11-11T12:06:11;102455.47;;;14.23;69.40
9141;BME280;46330;50.822;7.126;2022-11-11T12:09:11;102459.78;;;14.45;68.59
9141;BME280;46330;50.822;7.126;2022-11-11T12:12:05;102456.34;;;14.34;67.92
9141;BME280;46330;50.822;7.126;2022-11-11T12:15:05;102445.81;;;14.33;67.16
9141;BME280;46330;50.822;7.126;2022-11-11T12:18:08;102451.78;;;14.58;67.14
9141;BME280;46330;50.822;7.126;2022-11-11T12:21:05;102447.00;;;15.08;66.09
9141;BME280;46330;50.822;7.126;2022-11-11T12:23:57;102448.88;;;14.97;65.55
9141;BME280;46330;50.822;7.126;2022-11-11T12:26:50;102439.94;;;15.15;65.63
9141;BME280;46330;50.822;7.126;2022-11-11T12:29:52;102439.06;;;15.13;64.85
9141;BME280;46330;50.822;7.126;2022-11-11T12:33:03;102430.63;;;15.67;63.11
9141;BME280;46330;50.822;7.126;2022-11-11T12:36:03;102430.38;;;15.85;62.68
9141;BME280;46330;50.822;7.126;2022-11-11T12:39:04;102435.47;;;16.00;62.00
9141;BME280;46330;50.822;7.126;2022-11-11T12:42:01;102426.44;;;16.18;60.65
9141;BME280;46330;50.822;7.126;2022-11-11T12:44:54;102432.13;;;15.88;61.96
9141;BME280;46330;50.822;7.126;2022-11-11T12:47:52;102424.56;;;15.59;61.82
9141;BME280;46330;50.822;7.126;2022-11-11T12:50:47;102425.44;;;15.59;62.51
9141;BME280;46330;50.822;7.126;2022-11-11T12:53:44;102427.09;;;15.68;62.27
9141;BME280;46330;50.822;7.126;2022-11-11T12:56:37;102422.69;;;15.69;62.19
9141;BME280;46330;50.822;7.126;2022-11-11T12:59:39;102426.06;;;15.80;61.28
9141;BME280;46330;50.822;7.126;2022-11-11T13:02:41;102417.03;;;15.99;60.81
9141;BME280;46330;50.822;7.126;2022-11-11T13:05:38;102421.25;;;16.12;60.62
9141;BME280;46330;50.822;7.126;2022-11-11T13:11:53;102424.50;;;15.64;61.36
9141;BME280;46330;50.822;7.126;2022-11-11T13:14:53;102431.31;;;15.84;60.98
9141;BME280;46330;50.822;7.126;2022-11-11T13:17:42;102433.03;;;15.85;61.02
9141;BME280;46330;50.822;7.126;2022-11-11T13:20:42;102415.88;;;15.48;62.23
9141;BME280;46330;50.822;7.126;2022-11-11T13:23:30;102422.91;;;15.44;63.40
9141;BME280;46330;50.822;7.126;2022-11-11T13:26:24;102421.25;;;15.36;62.96
9141;BME280;46330;50.822;7.126;2022-11-11T13:29:33;102409.88;;;15.34;63.20
9141;BME280;46330;50.822;7.126;2022-11-11T13:32:26;102414.44;;;15.14;63.26
9141;BME280;46330;50.822;7.126;2022-11-11T13:35:21;102402.97;;;15.22;62.88
9141;BME280;46330;50.822;7.126;2022-11-11T13:38:13;102410.94;;;15.16;63.11
9141;BME280;46330;50.822;7.126;2022-11-11T13:41:08;102408.00;;;15.43;62.52
9141;BME280;46330;50.822;7.126;2022-11-11T13:43:56;102410.94;;;15.16;63.04
9141;BME280;46330;50.822;7.126;2022-11-11T13:46:46;102404.75;;;15.17;63.02
9141;BME280;46330;50.822;7.126;2022-11-11T13:49:37;102393.34;;;15.15;63.27
9141;BME280;46330;50.822;7.126;2022-11-11T13:52:26;102402.94;;;15.25;63.64
9141;BME280;46330;50.822;7.126;2022-11-11T13:55:24;102399.41;;;15.23;62.26
9141;BME280;46330;50.822;7.126;2022-11-11T13:58:22;102394.81;;;15.42;62.34
9141;BME280;46330;50.822;7.126;2022-11-11T14:01:10;102398.41;;;15.38;62.28
9141;BME280;46330;50.822;7.126;2022-11-11T14:04:02;102397.69;;;15.22;63.31
9141;BME280;46330;50.822;7.126;2022-11-11T14:06:51;102395.06;;;15.22;62.28
9141;BME280;46330;50.822;7.126;2022-11-11T14:09:58;102397.81;;;15.07;62.46
9141;BME280;46330;50.822;7.126;2022-11-11T14:12:47;102393.59;;;14.89;63.00
9141;BME280;46330;50.822;7.126;2022-11-11T14:15:37;102393.66;;;14.83;63.23
9141;BME280;46330;50.822;7.126;2022-11-11T14:18:38;102398.19;;;14.69;63.88
9141;BME280;46330;50.822;7.126;2022-11-11T14:21:45;102392.97;;;14.63;63.82
9141;BME280;46330;50.822;7.126;2022-11-11T14:24:36;102395.59;;;14.62;64.54
9141;BME280;46330;50.822;7.126;2022-11-11T14:27:26;102389.50;;;14.57;64.52
9141;BME280;46330;50.822;7.126;2022-11-11T14:30:33;102395.66;;;14.51;65.21
9141;BME280;46330;50.822;7.126;2022-11-11T14:33:34;102393.94;;;14.45;65.29
9141;BME280;46330;50.822;7.126;2022-11-11T14:36:30;102389.63;;;14.41;65.10
9141;BME280;46330;50.822;7.126;2022-11-11T14:39:29;102394.88;;;14.35;66.02
9141;BME280;46330;50.822;7.126;2022-11-11T14:42:41;102401.06;;;14.34;65.94
9141;BME280;46330;50.822;7.126;2022-11-11T14:46:02;102407.31;;;14.12;67.01
9141;BME280;46330;50.822;7.126;2022-11-11T14:48:54;102399.44;;;14.06;67.40
9141;BME280;46330;50.822;7.126;2022-11-11T14:51:53;102403.84;;;14.01;67.88
9141;BME280;46330;50.822;7.126;2022-11-11T14:55:00;102402.91;;;14.11;68.04
9141;BME280;46330;50.822;7.126;2022-11-11T14:57:55;102411.72;;;14.01;68.17
9141;BME280;46330;50.822;7.126;2022-11-11T15:00:46;102396.88;;;13.91;68.51
9141;BME280;46330;50.822;7.126;2022-11-11T15:03:36;102406.53;;;13.89;68.77
9141;BME280;46330;50.822;7.126;2022-11-11T15:06:29;102395.19;;;13.76;68.71
9141;BME280;46330;50.822;7.126;2022-11-11T15:09:33;102403.13;;;13.67;69.29
9141;BME280;46330;50.822;7.126;2022-11-11T15:12:35;102398.75;;;13.65;69.73
9141;BME280;46330;50.822;7.126;2022-11-11T15:15:27;102404.06;;;13.51;69.81
9141;BME280;46330;50.822;7.126;2022-11-11T15:18:28;102399.72;;;13.41;70.19